Time;durP1;ratioP1;P1;durP2;ratioP2;P2;SDS_P1;SDS_P2;PMS_P1;PMS_P2;Temp;Humidity;BMP_temperature;BMP_pressure;BME280_temperature;BME280_humidity;BME280_pressure;Samples;Min_cycle;Max_cycle;Signal;HPM_P1;HPM_P2
2023/12/07 00:01:43;;;;;;;20.02;7.43;;;0.30;99.90;;;;;;5007958;28;20054;-75
2023/12/07 00:04:08;;;;;;;15.55;7.43;;;0.30;99.90;;;;;;5008822;28;20038;-76
2023/12/07 00:06:34;;;;;;;17.73;7.00;;;0.30;99.90;;;;;;5008007;28;20080;-75
2023/12/07 00:09:00;;;;;;;16.67;8.88;;;0.30;99.90;;;;;;5010603;28;20034;-75
2023/12/07 00:11:26;;;;;;;12.75;6.97;;;0.30;99.90;;;;;;5009837;28;20030;-75
2023/12/07 00:13:52;;;;;;;16.27;7.70;;;0.30;99.90;;;;;;5012297;28;20520;-76
2023/12/07 00:16:17;;;;;;;18.27;8.32;;;0.30;99.90;;;;;;5009245;28;20037;-76
2023/12/07 00:18:43;;;;;;;19.50;7.82;;;0.40;99.90;;;;;;5008091;28;20037;-76
2023/12/07 00:21:09;;;;;;;15.45;7.28;;;0.30;99.90;;;;;;5009503;28;20474;-76
2023/12/07 00:23:34;;;;;;;16.20;7.78;;;0.30;99.90;;;;;;5011878;28;20038;-75
2023/12/07 00:26:00;;;;;;;17.23;7.60;;;0.30;99.90;;;;;;5009590;28;20073;-75
2023/12/07 00:28:26;;;;;;;19.30;8.20;;;0.40;99.90;;;;;;5010898;28;20069;-75
2023/12/07 00:30:52;;;;;;;14.98;7.93;;;0.40;99.90;;;;;;5011397;28;20028;-75
2023/12/07 00:33:17;;;;;;;17.63;7.88;;;0.30;99.90;;;;;;5005719;28;20026;-76
2023/12/07 00:35:43;;;;;;;20.70;6.85;;;0.30;99.90;;;;;;5006644;28;20053;-76
2023/12/07 00:38:08;;;;;;;15.23;7.88;;;0.40;99.90;;;;;;5010319;28;20549;-76
2023/12/07 00:40:36;;;;;;;16.50;7.90;;;0.40;99.90;;;;;;5009784;28;20044;-76
2023/12/07 00:43:03;;;;;;;18.60;7.35;;;0.40;99.90;;;;;;5008786;28;20029;-76
2023/12/07 00:45:28;;;;;;;17.88;7.82;;;0.40;99.90;;;;;;5007725;28;20035;-76
2023/12/07 00:47:54;;;;;;;15.30;6.65;;;0.40;99.90;;;;;;5004350;28;20455;-76
2023/12/07 00:50:19;;;;;;;15.93;7.10;;;0.40;99.90;;;;;;5007689;28;20478;-76
2023/12/07 00:52:45;;;;;;;17.67;7.97;;;0.40;99.90;;;;;;5006635;28;20061;-76
2023/12/07 00:55:10;;;;;;;16.90;7.70;;;0.40;99.90;;;;;;5009402;28;20033;-76
2023/12/07 00:57:36;;;;;;;17.60;7.60;;;0.40;99.90;;;;;;5008354;28;20026;-76
2023/12/07 01:00:01;;;;;;;16.13;6.63;;;0.40;99.90;;;;;;5010474;28;20318;-75
2023/12/07 01:02:27;;;;;;;19.52;7.55;;;0.40;99.90;;;;;;5003240;28;20136;-75
2023/12/07 01:04:53;;;;;;;16.50;8.45;;;0.40;99.90;;;;;;5010403;28;20116;-76
2023/12/07 01:07:18;;;;;;;18.60;7.75;;;0.40;99.90;;;;;;5010249;28;20467;-75
2023/12/07 01:09:44;;;;;;;22.08;7.53;;;0.40;99.90;;;;;;5007930;28;20084;-76
2023/12/07 01:12:09;;;;;;;15.15;7.50;;;0.40;99.90;;;;;;5009372;28;20026;-76
2023/12/07 01:14:35;;;;;;;17.80;7.65;;;0.40;99.90;;;;;;5010124;28;20120;-76
2023/12/07 01:17:00;;;;;;;14.00;7.25;;;0.40;99.90;;;;;;5008161;28;20041;-76
2023/12/07 01:19:26;;;;;;;17.30;7.88;;;0.40;99.90;;;;;;5006889;28;20069;-76
2023/12/07 01:21:51;;;;;;;17.08;7.55;;;0.40;99.90;;;;;;5009101;28;20026;-76
2023/12/07 01:24:17;;;;;;;17.98;8.20;;;0.40;99.90;;;;;;5007021;28;20050;-76
2023/12/07 01:26:43;;;;;;;17.90;8.52;;;0.50;99.90;;;;;;5008955;28;20037;-76
2023/12/07 01:29:08;;;;;;;16.48;8.23;;;0.40;99.90;;;;;;5010862;28;20034;-76
2023/12/07 01:31:33;;;;;;;18.27;9.50;;;0.50;99.90;;;;;;5007855;28;20030;-75
2023/12/07 01:33:59;;;;;;;16.05;8.23;;;0.50;99.90;;;;;;5006283;28;20068;-76
2023/12/07 01:36:25;;;;;;;17.70;8.38;;;0.50;99.90;;;;;;5008369;28;20041;-76
2023/12/07 01:38:50;;;;;;;16.25;7.22;;;0.50;99.90;;;;;;5009344;28;20533;-76
2023/12/07 01:41:15;;;;;;;17.02;8.75;;;0.50;99.90;;;;;;5009379;28;20046;-76
2023/12/07 01:43:47;;;;;;;18.88;8.93;;;0.50;99.90;;;;;;5009150;28;20038;-76
2023/12/07 01:46:14;;;;;;;15.77;8.48;;;0.50;99.90;;;;;;5009889;28;20402;-76
2023/12/07 01:48:39;;;;;;;15.43;8.15;;;0.50;99.90;;;;;;5002104;28;20046;-76
2023/12/07 01:51:06;;;;;;;19.85;8.65;;;0.50;99.90;;;;;;5006984;28;20061;-76
2023/12/07 01:53:32;;;;;;;19.88;9.00;;;0.50;99.90;;;;;;5024970;28;20117;-76
2023/12/07 01:55:58;;;;;;;18.70;8.63;;;0.50;99.90;;;;;;5008336;28;20109;-75
2023/12/07 01:58:24;;;;;;;18.55;7.57;;;0.50;99.90;;;;;;5008566;28;20455;-76
2023/12/07 02:00:49;;;;;;;17.15;8.38;;;0.50;99.90;;;;;;5008993;28;20065;-76
2023/12/07 02:03:16;;;;;;;14.65;7.88;;;0.50;99.90;;;;;;5002396;28;20041;-75
2023/12/07 02:05:46;;;;;;;19.00;8.95;;;0.50;99.90;;;;;;5009309;28;20045;-76
2023/12/07 02:08:11;;;;;;;16.63;8.48;;;0.50;99.90;;;;;;5010045;28;20038;-76
2023/12/07 02:10:37;;;;;;;19.67;8.88;;;0.50;99.90;;;;;;5008243;28;20064;-76
2023/12/07 02:13:03;;;;;;;19.70;9.07;;;0.50;99.90;;;;;;5009562;28;20034;-76
2023/12/07 02:15:29;;;;;;;18.52;8.45;;;0.50;99.90;;;;;;5008693;28;20026;-76
2023/12/07 02:18:10;;;;;;;19.05;8.50;;;0.60;99.90;;;;;;5005807;28;20033;-76
2023/12/07 02:20:42;;;;;;;17.30;8.00;;;0.60;99.90;;;;;;5008338;28;20487;-76
2023/12/07 02:23:09;;;;;;;17.75;9.32;;;0.60;99.90;;;;;;5007028;28;20241;-76
2023/12/07 02:25:53;;;;;;;16.35;8.98;;;0.60;99.90;;;;;;5006875;28;20029;-76
2023/12/07 02:28:18;;;;;;;15.98;9.18;;;0.50;99.90;;;;;;5011164;28;20029;-76
2023/12/07 02:30:44;;;;;;;17.20;7.43;;;0.60;99.90;;;;;;5009557;28;20423;-76
2023/12/07 02:33:10;;;;;;;17.70;9.35;;;0.50;99.90;;;;;;5008677;28;20041;-76
2023/12/07 02:35:37;;;;;;;17.63;7.97;;;0.60;99.90;;;;;;5012177;28;20022;-76
2023/12/07 02:38:05;;;;;;;17.58;8.40;;;0.60;99.90;;;;;;5016978;28;20021;-76
2023/12/07 02:40:31;;;;;;;18.30;8.90;;;0.60;99.90;;;;;;5012184;28;20100;-76
2023/12/07 02:42:57;;;;;;;19.08;8.25;;;0.60;99.90;;;;;;5009974;28;20050;-76
2023/12/07 02:45:23;;;;;;;19.05;8.68;;;0.60;99.90;;;;;;5011238;28;20041;-76
2023/12/07 02:47:48;;;;;;;19.80;8.32;;;0.60;99.90;;;;;;5010479;28;20037;-76
2023/12/07 02:50:14;;;;;;;15.55;8.05;;;0.60;99.90;;;;;;5010834;28;20042;-76
2023/12/07 02:52:40;;;;;;;19.90;8.35;;;0.50;99.90;;;;;;5010236;28;20029;-76
2023/12/07 02:55:06;;;;;;;16.65;8.98;;;0.60;99.90;;;;;;5012781;28;20026;-76
2023/12/07 02:57:33;;;;;;;16.48;7.90;;;0.60;99.90;;;;;;5012833;28;20034;-76
2023/12/07 02:59:59;;;;;;;19.20;10.10;;;0.60;99.90;;;;;;5012389;28;20103;-76
2023/12/07 03:02:25;;;;;;;15.93;7.82;;;0.60;99.90;;;;;;5022994;28;20612;-76
2023/12/07 03:04:50;;;;;;;19.58;9.80;;;0.60;99.90;;;;;;5009594;28;20096;-76
2023/12/07 03:07:16;;;;;;;19.05;8.95;;;0.60;99.90;;;;;;5012904;28;20351;-76
2023/12/07 03:09:41;;;;;;;21.73;8.68;;;0.60;99.90;;;;;;5011356;28;20124;-76
2023/12/07 03:12:07;;;;;;;21.35;8.73;;;0.60;99.90;;;;;;5011590;28;20148;-76
2023/12/07 03:14:33;;;;;;;21.55;8.68;;;0.60;99.90;;;;;;5009147;28;20030;-76
2023/12/07 03:16:59;;;;;;;18.30;8.27;;;0.60;99.90;;;;;;5010162;28;20036;-76
2023/12/07 03:19:25;;;;;;;16.23;8.50;;;0.60;99.90;;;;;;5009383;28;20049;-76
2023/12/07 03:21:50;;;;;;;21.35;9.90;;;0.60;99.90;;;;;;5011209;28;20509;-76
2023/12/07 03:24:16;;;;;;;17.70;8.43;;;0.60;99.90;;;;;;5011272;28;20049;-76
2023/12/07 03:26:41;;;;;;;18.63;9.55;;;0.60;99.90;;;;;;5012323;28;20049;-75
2023/12/07 03:29:07;;;;;;;20.23;10.00;;;0.60;99.90;;;;;;5012069;28;20052;-76
2023/12/07 03:31:32;;;;;;;18.77;8.88;;;0.60;99.90;;;;;;5010930;28;20060;-76
2023/12/07 03:33:59;;;;;;;20.63;8.88;;;0.60;99.90;;;;;;5007458;28;20131;-76
2023/12/07 03:36:24;;;;;;;18.85;8.95;;;0.60;99.90;;;;;;5012454;28;20058;-76
2023/12/07 03:38:50;;;;;;;22.35;8.32;;;0.60;99.90;;;;;;5011948;28;20135;-76
2023/12/07 03:41:15;;;;;;;15.73;7.80;;;0.60;99.90;;;;;;5011922;28;20029;-76
2023/12/07 03:43:41;;;;;;;19.38;7.55;;;0.60;99.90;;;;;;5008251;28;20042;-76
2023/12/07 03:46:07;;;;;;;18.88;8.30;;;0.60;99.90;;;;;;5010123;28;20513;-76
2023/12/07 03:48:33;;;;;;;16.98;8.30;;;0.60;99.90;;;;;;5006248;28;20042;-76
2023/12/07 03:50:59;;;;;;;16.35;8.10;;;0.60;99.90;;;;;;5010977;28;20057;-76
2023/12/07 03:53:24;;;;;;;20.17;9.93;;;0.60;99.90;;;;;;5011761;28;20045;-75
2023/12/07 03:55:50;;;;;;;18.85;9.20;;;0.60;99.90;;;;;;5007535;28;20038;-76
2023/12/07 03:58:16;;;;;;;21.85;8.93;;;0.60;99.90;;;;;;5009862;28;20033;-76
2023/12/07 04:00:42;;;;;;;17.17;7.78;;;0.60;99.90;;;;;;5011236;28;20048;-76
2023/12/07 04:03:07;;;;;;;18.00;8.70;;;0.60;99.90;;;;;;5008752;28;20030;-75
2023/12/07 04:05:33;;;;;;;18.90;9.32;;;0.60;99.90;;;;;;5010221;28;20113;-76
2023/12/07 04:07:59;;;;;;;17.70;9.48;;;0.70;99.90;;;;;;5012633;28;20034;-76
2023/12/07 04:10:24;;;;;;;16.75;8.07;;;0.70;99.90;;;;;;5008584;28;20064;-76
2023/12/07 04:12:52;;;;;;;21.75;9.35;;;0.70;99.90;;;;;;5004118;28;20084;-76
2023/12/07 04:15:18;;;;;;;17.80;7.78;;;0.70;99.90;;;;;;5007764;28;20027;-76
2023/12/07 04:17:43;;;;;;;20.77;9.05;;;0.70;99.90;;;;;;5007682;28;20041;-76
2023/12/07 04:20:09;;;;;;;18.27;9.18;;;0.70;99.90;;;;;;5010170;28;20041;-76
2023/12/07 04:22:35;;;;;;;19.90;9.48;;;0.70;99.90;;;;;;5008565;28;20026;-76
2023/12/07 04:25:00;;;;;;;21.60;9.68;;;0.70;99.90;;;;;;5009781;28;20034;-76
2023/12/07 04:27:26;;;;;;;15.68;7.55;;;0.70;99.90;;;;;;5010905;28;20121;-75
2023/12/07 04:29:51;;;;;;;20.15;8.73;;;0.70;99.90;;;;;;5011616;28;20415;-76
2023/12/07 04:32:17;;;;;;;19.58;9.10;;;0.70;99.90;;;;;;5008221;28;20489;-76
2023/12/07 04:34:42;;;;;;;19.77;8.82;;;0.70;99.90;;;;;;5010541;28;20045;-76
2023/12/07 04:37:08;;;;;;;20.67;9.88;;;0.70;99.90;;;;;;5011877;28;20041;-76
2023/12/07 04:39:33;;;;;;;19.90;8.75;;;0.70;99.90;;;;;;5008607;28;20066;-76
2023/12/07 04:41:58;;;;;;;19.90;9.00;;;0.80;99.90;;;;;;5008172;28;20038;-75
2023/12/07 04:44:25;;;;;;;19.85;8.82;;;0.70;99.90;;;;;;5009315;28;20117;-76
2023/12/07 04:46:51;;;;;;;20.48;9.85;;;0.80;99.90;;;;;;5008214;28;20377;-76
2023/12/07 04:49:16;;;;;;;18.73;8.75;;;0.80;99.90;;;;;;5006937;28;20046;-76
2023/12/07 04:51:46;;;;;;;20.00;9.60;;;0.80;99.90;;;;;;5009135;28;20132;-75
2023/12/07 04:54:14;;;;;;;21.80;10.20;;;0.80;99.90;;;;;;5010506;28;20030;-76
2023/12/07 04:56:43;;;;;;;19.58;9.20;;;0.80;99.90;;;;;;5009346;28;20084;-75
2023/12/07 04:59:09;;;;;;;19.67;9.35;;;0.80;99.90;;;;;;5008123;28;20034;-76
2023/12/07 05:01:38;;;;;;;18.63;8.88;;;0.80;99.90;;;;;;5006752;28;20060;-75
2023/12/07 05:04:04;;;;;;;16.75;9.45;;;0.80;99.90;;;;;;5007643;28;20044;-76
2023/12/07 05:06:31;;;;;;;18.67;9.68;;;0.80;99.90;;;;;;5010019;28;20042;-75
2023/12/07 05:08:57;;;;;;;19.40;9.20;;;0.80;99.90;;;;;;5010547;28;20030;-76
2023/12/07 05:11:22;;;;;;;21.35;10.90;;;0.80;99.90;;;;;;5010841;28;20038;-76
2023/12/07 05:13:48;;;;;;;19.58;9.32;;;0.80;99.90;;;;;;5008582;28;20061;-76
2023/12/07 05:16:13;;;;;;;16.35;8.45;;;0.80;99.90;;;;;;5006422;28;20034;-76
2023/12/07 05:18:39;;;;;;;16.40;8.45;;;0.80;99.90;;;;;;5009808;28;20141;-76
2023/12/07 05:21:05;;;;;;;18.73;9.57;;;0.80;99.90;;;;;;5008160;28;20485;-76
2023/12/07 05:23:31;;;;;;;20.05;9.82;;;0.80;99.90;;;;;;5010696;28;20062;-76
2023/12/07 05:25:56;;;;;;;17.08;8.50;;;0.80;99.90;;;;;;5009339;28;20034;-72
2023/12/07 05:28:22;;;;;;;17.52;8.93;;;0.80;99.90;;;;;;5009488;28;20034;-71
2023/12/07 05:30:48;;;;;;;16.08;8.20;;;0.80;99.90;;;;;;5006903;28;20030;-72
2023/12/07 05:33:15;;;;;;;21.55;9.02;;;0.90;99.90;;;;;;5003242;28;20060;-72
2023/12/07 05:35:40;;;;;;;18.92;9.60;;;0.90;99.90;;;;;;5010876;28;20446;-72
2023/12/07 05:38:06;;;;;;;14.90;7.43;;;0.90;99.90;;;;;;5007783;28;20045;-71
2023/12/07 05:40:31;;;;;;;17.25;8.07;;;0.80;99.90;;;;;;5008661;28;20054;-72
2023/12/07 05:42:57;;;;;;;15.65;7.43;;;0.80;99.90;;;;;;5007412;28;20383;-72
2023/12/07 05:45:22;;;;;;;20.33;9.50;;;0.90;99.90;;;;;;5007947;28;20048;-72
2023/12/07 05:47:48;;;;;;;18.83;8.27;;;0.90;99.90;;;;;;5006260;28;20385;-72
2023/12/07 05:50:13;;;;;;;16.70;8.75;;;0.90;99.90;;;;;;5005065;28;20140;-72
2023/12/07 05:52:39;;;;;;;17.63;8.63;;;0.90;99.90;;;;;;5008690;28;20037;-72
2023/12/07 05:55:05;;;;;;;16.08;8.65;;;0.90;99.90;;;;;;5006746;28;20033;-72
2023/12/07 05:57:31;;;;;;;17.63;7.97;;;0.90;99.90;;;;;;5006938;28;20459;-71
2023/12/07 05:59:56;;;;;;;16.20;7.53;;;0.90;99.90;;;;;;5009299;28;20244;-72
2023/12/07 06:02:22;;;;;;;14.95;6.95;;;0.90;99.90;;;;;;5009144;28;20038;-72
2023/12/07 06:04:47;;;;;;;18.10;8.35;;;0.90;99.90;;;;;;5008303;28;20030;-71
2023/12/07 06:07:12;;;;;;;17.33;8.30;;;0.90;99.90;;;;;;5006338;28;20490;-72
2023/12/07 06:09:38;;;;;;;16.83;7.80;;;0.90;99.90;;;;;;5007241;28;20148;-72
2023/12/07 06:12:04;;;;;;;15.38;7.28;;;0.90;99.90;;;;;;4997126;28;20045;-72
2023/12/07 06:14:29;;;;;;;16.13;7.72;;;0.90;99.90;;;;;;5007639;28;20070;-71
2023/12/07 06:16:55;;;;;;;15.00;8.60;;;0.90;99.90;;;;;;5003145;28;20026;-72
2023/12/07 06:19:21;;;;;;;16.05;7.65;;;0.90;99.90;;;;;;5005595;28;20034;-73
2023/12/07 06:21:46;;;;;;;13.82;7.07;;;0.90;99.90;;;;;;5001982;28;20033;-72
2023/12/07 06:24:14;;;;;;;15.07;7.45;;;0.90;99.90;;;;;;5006626;28;20648;-72
2023/12/07 06:26:39;;;;;;;17.45;8.23;;;0.90;99.90;;;;;;5010202;28;20525;-74
2023/12/07 06:29:07;;;;;;;17.05;9.25;;;0.80;99.90;;;;;;5004885;28;20038;-74
2023/12/07 06:31:33;;;;;;;15.95;8.02;;;0.80;99.90;;;;;;5007586;28;20089;-74
2023/12/07 06:34:00;;;;;;;15.93;7.93;;;0.80;99.90;;;;;;5005674;28;20063;-75
2023/12/07 06:36:26;;;;;;;15.90;7.75;;;0.80;99.90;;;;;;5010293;28;20024;-74
2023/12/07 06:38:52;;;;;;;19.60;8.85;;;0.80;99.90;;;;;;5010179;28;20034;-74
2023/12/07 06:41:18;;;;;;;18.98;7.70;;;0.80;99.90;;;;;;5005646;28;20045;-74
2023/12/07 06:43:44;;;;;;;16.77;7.65;;;0.80;99.90;;;;;;5009715;28;20462;-74
2023/12/07 06:46:11;;;;;;;16.30;7.78;;;0.80;99.90;;;;;;5008420;28;20136;-74
2023/12/07 06:48:37;;;;;;;23.48;8.55;;;0.80;99.90;;;;;;5006634;28;20036;-74
2023/12/07 06:51:03;;;;;;;14.30;7.22;;;0.80;99.90;;;;;;5006423;28;20252;-74
2023/12/07 06:53:29;;;;;;;17.27;7.00;;;0.80;99.90;;;;;;5009980;28;20356;-74
2023/12/07 06:55:54;;;;;;;16.10;7.55;;;0.80;99.90;;;;;;5007550;28;20040;-74
2023/12/07 06:58:20;;;;;;;12.45;6.53;;;0.80;99.90;;;;;;5005697;28;20055;-74
2023/12/07 07:00:45;;;;;;;17.08;7.90;;;0.80;99.90;;;;;;5005910;28;20073;-74
2023/12/07 07:03:11;;;;;;;14.98;7.85;;;0.80;99.90;;;;;;5002861;28;20441;-71
2023/12/07 07:05:36;;;;;;;12.82;6.65;;;0.80;99.90;;;;;;5006418;28;20062;-72
2023/12/07 07:08:02;;;;;;;15.25;7.25;;;0.80;99.90;;;;;;5012159;28;20041;-72
2023/12/07 07:10:27;;;;;;;17.05;8.05;;;0.80;99.90;;;;;;5006707;28;20129;-72
2023/12/07 07:12:53;;;;;;;16.52;7.47;;;0.80;99.90;;;;;;5000131;28;20117;-73
2023/12/07 07:15:18;;;;;;;14.20;6.82;;;0.80;99.90;;;;;;5006648;28;20414;-72
2023/12/07 07:17:44;;;;;;;18.40;8.45;;;0.80;99.90;;;;;;5007025;28;20108;-73
2023/12/07 07:20:09;;;;;;;17.52;8.55;;;0.80;99.90;;;;;;5009163;28;20557;-72
2023/12/07 07:22:35;;;;;;;15.05;6.80;;;0.80;99.90;;;;;;5009986;28;20025;-72
2023/12/07 07:25:00;;;;;;;14.38;7.43;;;0.80;99.90;;;;;;5006918;28;20377;-73
2023/12/07 07:27:26;;;;;;;14.20;7.07;;;0.80;99.90;;;;;;5013485;28;20085;-72
2023/12/07 07:29:52;;;;;;;17.42;8.88;;;0.80;99.90;;;;;;5008937;28;20113;-72
2023/12/07 07:32:17;;;;;;;14.00;7.57;;;0.80;99.90;;;;;;5006060;28;20164;-73
2023/12/07 07:34:43;;;;;;;13.13;6.13;;;0.80;99.90;;;;;;5011831;28;20034;-73
2023/12/07 07:37:08;;;;;;;19.42;8.27;;;0.90;99.90;;;;;;5007247;28;20056;-73
2023/12/07 07:39:34;;;;;;;16.23;7.95;;;0.80;99.90;;;;;;5007035;28;20046;-73
2023/12/07 07:42:00;;;;;;;16.27;7.80;;;0.80;99.90;;;;;;5013368;28;20037;-70
2023/12/07 07:44:25;;;;;;;15.88;7.43;;;0.80;99.90;;;;;;5014084;28;20400;-69
2023/12/07 07:46:51;;;;;;;15.13;7.85;;;0.90;99.90;;;;;;5011533;28;20438;-70
2023/12/07 07:49:16;;;;;;;14.63;7.05;;;0.90;99.90;;;;;;5010051;28;20084;-72
2023/12/07 07:51:42;;;;;;;15.13;7.32;;;0.90;99.90;;;;;;5005964;28;20073;-73
2023/12/07 07:54:08;;;;;;;13.25;5.90;;;0.90;99.90;;;;;;5011938;28;20439;-75
2023/12/07 07:56:33;;;;;;;15.07;6.93;;;0.90;99.90;;;;;;5011416;28;20053;-76
2023/12/07 07:59:00;;;;;;;13.68;6.78;;;0.90;99.90;;;;;;5008718;28;20383;-74
2023/12/07 08:01:26;;;;;;;14.55;7.57;;;0.90;99.90;;;;;;5009431;28;20042;-75
2023/12/07 08:03:51;;;;;;;14.27;7.28;;;0.90;99.90;;;;;;5008380;28;20084;-73
2023/12/07 08:06:17;;;;;;;15.68;7.47;;;0.90;99.90;;;;;;5009382;28;20041;-74
2023/12/07 08:08:42;;;;;;;18.00;8.00;;;0.90;99.90;;;;;;5022724;28;20069;-72
2023/12/07 08:11:08;;;;;;;13.82;6.70;;;0.90;99.90;;;;;;5007545;28;20037;-73
2023/12/07 08:13:33;;;;;;;15.57;7.28;;;1.00;99.90;;;;;;5011135;28;20072;-73
2023/12/07 08:15:59;;;;;;;13.82;7.10;;;1.00;99.90;;;;;;5007710;28;20041;-73
2023/12/07 08:18:25;;;;;;;15.55;7.03;;;1.00;99.90;;;;;;5011595;28;20153;-73
2023/12/07 08:20:51;;;;;;;20.75;8.05;;;1.00;99.90;;;;;;5010520;28;20034;-74
2023/12/07 08:23:16;;;;;;;16.50;7.07;;;1.10;99.90;;;;;;5013129;28;20033;-73
2023/12/07 08:25:43;;;;;;;14.98;6.57;;;1.10;99.90;;;;;;5011474;28;20045;-73
2023/12/07 08:28:09;;;;;;;16.17;7.55;;;1.10;99.90;;;;;;5011111;28;20026;-74
2023/12/07 08:30:35;;;;;;;15.38;7.43;;;1.10;99.90;;;;;;5006521;28;20063;-73
2023/12/07 08:33:00;;;;;;;14.50;7.43;;;1.20;99.90;;;;;;5007980;28;20402;-71
2023/12/07 08:35:26;;;;;;;20.42;8.65;;;1.20;99.90;;;;;;5011955;28;20045;-74
2023/12/07 08:37:51;;;;;;;16.73;7.22;;;1.30;99.90;;;;;;5010456;28;20034;-74
2023/12/07 08:40:17;;;;;;;16.38;8.48;;;1.30;99.90;;;;;;5010299;28;20046;-73
2023/12/07 08:42:47;;;;;;;16.95;8.52;;;1.40;99.90;;;;;;5011158;28;20034;-73
2023/12/07 08:45:15;;;;;;;20.05;9.00;;;1.40;99.90;;;;;;5011522;28;20033;-73
2023/12/07 08:47:41;;;;;;;17.48;9.05;;;1.40;99.90;;;;;;5005247;28;20121;-73
2023/12/07 08:50:07;;;;;;;18.77;9.20;;;1.40;99.90;;;;;;5011537;28;20054;-73
2023/12/07 08:52:33;;;;;;;16.35;8.15;;;1.40;99.90;;;;;;5004293;28;20483;-73
2023/12/07 08:54:59;;;;;;;19.48;8.30;;;1.40;99.90;;;;;;5006800;28;20030;-72
2023/12/07 08:57:25;;;;;;;17.05;7.88;;;1.40;99.90;;;;;;5006829;28;20052;-72
2023/12/07 08:59:50;;;;;;;17.63;8.18;;;1.50;99.90;;;;;;5010259;28;20128;-73
2023/12/07 09:02:16;;;;;;;17.45;8.27;;;1.50;99.90;;;;;;5006252;28;20030;-72
2023/12/07 09:04:41;;;;;;;15.40;7.65;;;1.60;99.90;;;;;;5006273;28;20053;-72
2023/12/07 09:07:07;;;;;;;23.15;8.77;;;1.60;99.90;;;;;;5006378;28;20053;-73
2023/12/07 09:09:32;;;;;;;16.77;6.60;;;1.60;99.90;;;;;;5007686;28;20057;-73
2023/12/07 09:11:58;;;;;;;15.68;7.85;;;1.60;99.90;;;;;;5009337;28;20463;-72
2023/12/07 09:14:23;;;;;;;18.23;8.40;;;1.60;99.90;;;;;;5006953;28;20462;-73
2023/12/07 09:16:49;;;;;;;15.50;7.68;;;1.60;99.90;;;;;;5007957;28;20084;-72
2023/12/07 09:19:14;;;;;;;12.70;6.63;;;1.70;99.90;;;;;;5008297;28;20598;-72
2023/12/07 09:21:40;;;;;;;16.33;7.95;;;1.70;99.90;;;;;;5008391;28;20104;-73
2023/12/07 09:24:06;;;;;;;14.73;7.00;;;1.70;99.90;;;;;;5009678;28;20030;-72
2023/12/07 09:26:32;;;;;;;14.23;7.05;;;1.70;99.90;;;;;;5008767;28;20066;-73
2023/12/07 09:28:58;;;;;;;15.27;7.15;;;1.70;99.90;;;;;;5007056;28;20034;-73
2023/12/07 09:31:23;;;;;;;15.75;7.18;;;1.80;99.90;;;;;;5009201;28;20042;-71
2023/12/07 09:33:49;;;;;;;15.00;7.35;;;1.80;99.90;;;;;;5007195;28;20478;-72
2023/12/07 09:36:21;;;;;;;12.60;6.47;;;1.90;99.90;;;;;;5007329;28;20109;-72
2023/12/07 09:38:47;;;;;;;12.38;6.78;;;1.80;99.90;;;;;;5003240;28;20394;-73
2023/12/07 09:41:12;;;;;;;13.15;7.65;;;1.90;99.90;;;;;;5007583;28;20052;-72
2023/12/07 09:43:38;;;;;;;13.60;6.28;;;1.90;99.90;;;;;;5008519;28;20394;-72
2023/12/07 09:46:05;;;;;;;19.38;7.50;;;1.90;99.90;;;;;;5007501;28;20422;-74
2023/12/07 09:48:31;;;;;;;14.52;6.93;;;1.90;99.90;;;;;;5006099;28;20034;-73
2023/12/07 09:50:56;;;;;;;14.10;6.75;;;1.90;99.90;;;;;;5012588;28;20049;-73
2023/12/07 09:53:22;;;;;;;13.90;7.30;;;1.80;99.90;;;;;;5008022;28;20486;-72
2023/12/07 09:55:48;;;;;;;13.30;7.38;;;1.90;99.90;;;;;;5008056;28;20374;-73
2023/12/07 09:58:14;;;;;;;14.65;7.22;;;1.80;99.90;;;;;;5008575;28;20042;-73
2023/12/07 10:00:40;;;;;;;12.20;5.63;;;1.90;99.90;;;;;;5006888;28;20401;-73
2023/12/07 10:03:09;;;;;;;12.52;5.57;;;1.90;99.90;;;;;;5007826;28;20076;-71
2023/12/07 10:05:52;;;;;;;13.13;6.85;;;1.90;99.90;;;;;;5007082;28;20029;-71
2023/12/07 10:08:26;;;;;;;12.50;6.32;;;1.90;99.90;;;;;;5005879;28;20052;-71
2023/12/07 10:11:05;;;;;;;14.43;6.88;;;1.90;99.90;;;;;;5009248;28;20034;-72
2023/12/07 10:13:32;;;;;;;12.23;6.40;;;1.90;99.90;;;;;;5006985;28;20100;-72
2023/12/07 10:16:17;;;;;;;13.50;6.43;;;1.80;99.90;;;;;;5006643;28;20355;-71
2023/12/07 10:18:43;;;;;;;13.52;5.90;;;1.80;99.90;;;;;;5006121;28;20470;-72
2023/12/07 10:21:11;;;;;;;10.85;6.13;;;1.80;99.90;;;;;;5008312;28;20092;-71
2023/12/07 10:23:38;;;;;;;12.38;5.95;;;1.80;99.90;;;;;;5009584;28;20038;-72
2023/12/07 10:26:06;;;;;;;12.45;6.22;;;1.80;99.90;;;;;;5007978;28;20061;-73
2023/12/07 10:28:33;;;;;;;11.80;5.88;;;1.70;99.90;;;;;;5006492;28;20036;-73
2023/12/07 10:30:59;;;;;;;12.15;6.50;;;1.70;99.90;;;;;;5009080;28;20467;-73
2023/12/07 10:33:26;;;;;;;13.18;6.45;;;1.80;99.90;;;;;;5006690;28;20049;-73
2023/12/07 10:35:51;;;;;;;12.10;6.88;;;1.80;99.90;;;;;;5008767;28;20074;-72
2023/12/07 10:38:18;;;;;;;15.77;7.25;;;1.80;99.90;;;;;;5009477;28;20549;-71
2023/12/07 10:40:45;;;;;;;12.48;6.32;;;1.80;99.90;;;;;;5006081;28;20129;-73
2023/12/07 10:43:12;;;;;;;12.65;6.22;;;1.80;99.90;;;;;;5004821;28;20026;-73
2023/12/07 10:45:41;;;;;;;12.55;6.63;;;1.80;99.90;;;;;;5005308;28;20053;-74
2023/12/07 10:48:08;;;;;;;12.63;6.53;;;1.80;99.90;;;;;;5006882;28;20109;-73
2023/12/07 10:50:43;;;;;;;12.02;6.03;;;1.80;99.90;;;;;;5008520;28;20508;-73
2023/12/07 10:53:10;;;;;;;16.10;7.80;;;1.90;99.90;;;;;;5011475;28;20502;-73
2023/12/07 10:55:45;;;;;;;13.50;6.68;;;1.90;99.90;;;;;;5009244;28;20037;-72
2023/12/07 10:58:12;;;;;;;13.68;6.20;;;1.90;99.90;;;;;;5012654;28;20034;-71
2023/12/07 11:00:40;;;;;;;11.30;5.93;;;1.90;99.90;;;;;;5010306;28;20125;-73
2023/12/07 11:03:07;;;;;;;12.27;6.20;;;2.00;99.90;;;;;;5005964;28;20077;-71
2023/12/07 11:05:33;;;;;;;11.85;6.25;;;2.00;99.90;;;;;;5008331;28;20054;-71
2023/12/07 11:08:09;;;;;;;13.27;6.20;;;2.00;99.90;;;;;;5013702;28;20537;-71
2023/12/07 11:10:43;;;;;;;12.23;6.45;;;2.10;99.90;;;;;;5010529;28;20070;-71
2023/12/07 11:13:28;;;;;;;11.23;5.97;;;2.10;99.90;;;;;;5010147;28;20033;-71
2023/12/07 11:15:55;;;;;;;13.75;6.53;;;2.10;99.90;;;;;;5010814;28;20374;-71
2023/12/07 11:18:21;;;;;;;13.75;6.80;;;2.10;99.90;;;;;;5008845;28;20034;-71
2023/12/07 11:20:47;;;;;;;11.63;5.80;;;2.20;99.90;;;;;;5010880;28;20034;-71
2023/12/07 11:23:17;;;;;;;12.90;5.90;;;2.20;99.90;;;;;;5012424;28;20034;-72
2023/12/07 11:25:44;;;;;;;12.10;5.90;;;2.20;99.90;;;;;;5007816;28;20479;-72
2023/12/07 11:28:12;;;;;;;11.55;5.95;;;2.20;99.90;;;;;;5012958;28;20034;-72
2023/12/07 11:30:37;;;;;;;13.50;6.53;;;2.30;99.90;;;;;;5013163;28;20061;-72
2023/12/07 11:33:04;;;;;;;12.20;6.35;;;2.20;99.90;;;;;;5008305;28;20033;-71
2023/12/07 11:35:30;;;;;;;10.07;5.40;;;2.20;99.90;;;;;;5010132;28;20042;-71
2023/12/07 11:38:11;;;;;;;12.57;6.25;;;2.20;99.90;;;;;;5011970;28;20549;-71
2023/12/07 11:40:41;;;;;;;12.57;6.53;;;2.10;99.90;;;;;;5012084;28;20498;-71
2023/12/07 11:43:07;;;;;;;11.07;6.18;;;2.20;99.90;;;;;;5011312;28;20034;-71
2023/12/07 11:45:53;;;;;;;11.10;5.57;;;2.30;99.90;;;;;;5012819;28;20042;-72
2023/12/07 11:48:18;;;;;;;11.68;5.88;;;2.20;99.90;;;;;;5008717;28;20066;-72
2023/12/07 11:50:56;;;;;;;13.52;6.93;;;2.20;99.90;;;;;;5011317;28;20135;-72
2023/12/07 11:53:26;;;;;;;11.77;6.20;;;2.20;99.90;;;;;;5003002;28;20033;-71
2023/12/07 11:55:52;;;;;;;11.68;5.88;;;2.20;99.90;;;;;;5007652;28;20034;-72
2023/12/07 11:58:17;;;;;;;13.75;6.80;;;2.30;99.90;;;;;;5013066;28;20422;-71
2023/12/07 12:00:46;;;;;;;12.23;6.85;;;2.40;99.90;;;;;;5011828;28;20037;-72
2023/12/07 12:03:12;;;;;;;11.38;5.57;;;2.40;99.90;;;;;;5000821;28;20033;-71
2023/12/07 12:05:40;;;;;;;12.10;6.00;;;2.40;99.90;;;;;;5008597;28;20040;-71
2023/12/07 12:08:06;;;;;;;11.82;5.55;;;2.40;99.90;;;;;;5006063;28;20028;-72
2023/12/07 12:10:31;;;;;;;10.20;5.30;;;2.50;99.90;;;;;;5008374;28;20038;-72
2023/12/07 12:12:57;;;;;;;11.88;6.25;;;2.40;99.90;;;;;;5010536;28;20406;-71
2023/12/07 12:15:22;;;;;;;12.02;5.55;;;2.50;99.90;;;;;;5012019;28;20040;-72
2023/12/07 12:17:48;;;;;;;11.07;6.30;;;2.60;99.90;;;;;;5006783;28;20034;-71
2023/12/07 12:20:17;;;;;;;10.65;5.38;;;2.60;99.90;;;;;;5008977;28;20041;-70
2023/12/07 12:22:43;;;;;;;11.10;6.55;;;2.60;99.90;;;;;;5011114;28;20073;-71
2023/12/07 12:25:08;;;;;;;10.32;5.22;;;2.70;99.90;;;;;;5018668;28;20048;-71
2023/12/07 12:27:35;;;;;;;9.48;4.97;;;2.60;99.90;;;;;;5024870;28;20034;-72
2023/12/07 12:30:01;;;;;;;11.23;5.75;;;2.60;99.90;;;;;;5005498;28;20033;-71
2023/12/07 12:32:27;;;;;;;12.27;5.78;;;2.60;99.90;;;;;;5007492;28;20062;-71
2023/12/07 12:34:53;;;;;;;10.80;5.57;;;2.60;99.90;;;;;;5008503;28;20072;-71
2023/12/07 12:37:18;;;;;;;10.00;5.55;;;2.60;99.90;;;;;;5007764;28;20030;-72
2023/12/07 12:39:44;;;;;;;9.75;4.25;;;2.60;99.90;;;;;;5009056;28;20041;-72
2023/12/07 12:42:11;;;;;;;11.77;5.50;;;2.60;99.90;;;;;;5009214;28;20036;-72
2023/12/07 12:44:38;;;;;;;11.98;5.47;;;2.60;99.90;;;;;;5011832;28;20034;-71